Time;durP1;ratioP1;P1;durP2;ratioP2;P2;SDS_P1;SDS_P2;PMS_P1;PMS_P2;Temp;Humidity;BMP_temperature;BMP_pressure;BME280_temperature;BME280_humidity;BME280_pressure;Samples;Min_cycle;Max_cycle;Signal;HPM_P1;HPM_P2
2023/03/31 00:00:53;;;;;;;5.05;0.90;;;12.80;99.90;;;12.98;100.00;100024.72;5166386;28;20713;-72
2023/03/31 00:03:25;;;;;;;1.42;0.70;;;12.80;99.90;;;12.93;100.00;100019.41;5226227;23;20133;-70
2023/03/31 00:05:58;;;;;;;1.92;0.70;;;12.80;99.90;;;12.90;100.00;100015.88;5176538;28;20525;-70
2023/03/31 00:08:39;;;;;;;2.28;0.55;;;12.80;99.90;;;12.89;100.00;100011.50;5171892;28;20042;-70
2023/03/31 00:11:13;;;;;;;1.10;0.70;;;12.80;99.90;;;12.86;100.00;100008.84;5182084;28;20445;-69
2023/03/31 00:13:45;;;;;;;1.25;0.52;;;12.70;99.90;;;12.83;100.00;99999.22;5174795;28;20064;-69
2023/03/31 00:16:18;;;;;;;1.15;0.60;;;12.70;99.90;;;12.84;100.00;100000.09;5168281;28;20517;-69
2023/03/31 00:18:51;;;;;;;2.17;0.60;;;12.70;99.90;;;12.82;100.00;99991.34;5182260;28;20041;-70
2023/03/31 00:21:24;;;;;;;1.65;0.60;;;12.70;99.90;;;12.79;100.00;99992.22;5178164;28;20116;-70
2023/03/31 00:24:00;;;;;;;0.88;0.52;;;12.70;99.90;;;12.79;100.00;99986.97;5185544;28;20545;-71
2023/03/31 00:26:34;;;;;;;1.88;0.80;;;12.70;99.90;;;12.80;100.00;99974.78;5172828;28;20278;-70
2023/03/31 00:29:10;;;;;;;2.35;0.80;;;12.70;99.90;;;12.80;100.00;99977.41;5171530;28;20145;-69
2023/03/31 00:31:42;;;;;;;1.13;0.50;;;12.70;99.90;;;12.79;100.00;99973.03;5176325;28;20045;-69
2023/03/31 00:34:14;;;;;;;0.95;0.40;;;12.60;99.90;;;12.77;100.00;99965.13;5181778;28;20104;-70
2023/03/31 00:36:47;;;;;;;1.33;0.55;;;12.70;99.90;;;12.75;100.00;99967.75;5172088;28;20230;-70
2023/03/31 00:39:24;;;;;;;0.85;0.60;;;12.60;99.90;;;12.72;100.00;99964.22;5185784;28;20604;-70
2023/03/31 00:41:56;;;;;;;1.30;0.50;;;12.60;99.90;;;12.70;100.00;99958.94;5184574;28;20046;-69
2023/03/31 00:44:32;;;;;;;3.05;0.60;;;12.60;99.90;;;12.71;100.00;99947.66;5180052;28;20133;-70
2023/03/31 00:47:12;;;;;;;1.30;0.60;;;12.60;99.90;;;12.68;100.00;99936.28;5177445;28;20116;-69
2023/03/31 00:49:48;;;;;;;1.98;0.50;;;12.60;99.90;;;12.64;100.00;99922.25;5172668;28;20046;-70
2023/03/31 00:52:24;;;;;;;2.08;0.63;;;12.60;99.90;;;12.61;100.00;99924.84;5182446;28;20053;-69
2023/03/31 00:55:05;;;;;;;1.60;0.52;;;12.50;99.90;;;12.58;100.00;99916.09;5179628;28;20038;-70
2023/03/31 00:57:39;;;;;;;3.35;0.70;;;12.50;99.90;;;12.55;100.00;99916.94;5176966;28;20056;-69
2023/03/31 01:00:14;;;;;;;2.17;0.70;;;12.50;99.90;;;12.53;100.00;99915.16;5167465;28;20046;-69
2023/03/31 01:02:51;;;;;;;1.83;0.68;;;12.40;99.90;;;12.51;100.00;99907.28;5184959;28;20048;-69
2023/03/31 01:05:28;;;;;;;3.88;0.70;;;12.40;99.90;;;12.49;100.00;99888.09;5167398;28;20046;-68
2023/03/31 01:08:04;;;;;;;1.15;0.70;;;12.40;99.90;;;12.46;100.00;99880.22;5179532;28;20523;-70
2023/03/31 01:10:43;;;;;;;2.45;0.70;;;12.40;99.90;;;12.39;100.00;99871.44;5172699;28;20052;-69
2023/03/31 01:13:17;;;;;;;1.75;0.40;;;12.30;99.90;;;12.34;100.00;99869.63;5164959;28;20407;-70
2023/03/31 01:15:51;;;;;;;2.33;0.80;;;12.30;99.90;;;12.31;100.00;99866.94;5179629;28;20037;-70
2023/03/31 01:18:26;;;;;;;1.77;0.60;;;12.30;99.90;;;12.27;100.00;99859.94;5175155;28;20050;-69
2023/03/31 01:21:58;;;;;;;3.58;0.80;;;12.20;99.90;;;12.25;100.00;99861.63;5168063;28;20052;-71
2023/03/31 01:25:03;;;;;;;2.78;0.57;;;12.20;99.90;;;12.22;100.00;99857.28;5163168;28;20597;-69
2023/03/31 01:28:12;;;;;;;2.13;0.70;;;12.10;99.90;;;12.19;100.00;99844.16;5172477;28;20038;-70
2023/03/31 01:31:53;;;;;;;2.38;0.93;;;12.10;99.90;;;12.16;100.00;99842.38;5164410;28;20069;-69
2023/03/31 01:35:20;;;;;;;2.13;0.40;;;12.10;99.90;;;12.17;100.00;99838.03;5149968;28;20050;-70
2023/03/31 01:38:51;;;;;;;1.23;0.47;;;12.10;99.90;;;12.20;100.00;99827.63;5194048;28;20049;-69
2023/03/31 01:41:42;;;;;;;0.95;0.70;;;12.10;99.90;;;12.20;100.00;99820.69;5119972;28;20052;-69
2023/03/31 01:44:24;;;;;;;1.10;0.50;;;12.10;99.90;;;12.21;100.00;99826.78;5174232;28;20491;-69
2023/03/31 01:47:02;;;;;;;2.78;0.63;;;12.10;99.90;;;12.22;100.00;99829.41;5173994;28;20050;-70
2023/03/31 01:49:43;;;;;;;1.52;0.60;;;12.10;99.90;;;12.22;100.00;99811.13;5176578;28;20042;-70
2023/03/31 01:52:23;;;;;;;1.90;0.73;;;12.10;99.90;;;12.24;100.00;99805.91;5184643;28;20108;-71
2023/03/31 01:55:02;;;;;;;1.27;0.52;;;12.10;99.90;;;12.27;100.00;99805.09;5177264;28;20034;-69
2023/03/31 01:57:39;;;;;;;1.75;0.60;;;12.20;99.90;;;12.29;100.00;99806.84;5175290;28;20395;-71
2023/03/31 02:00:14;;;;;;;1.20;0.52;;;12.20;99.90;;;12.30;100.00;99797.25;5190941;28;20046;-70
2023/03/31 02:02:53;;;;;;;2.65;0.77;;;12.20;99.90;;;12.31;100.00;99801.63;5185925;28;20045;-70
2023/03/31 02:05:31;;;;;;;4.03;0.90;;;12.20;99.90;;;12.35;100.00;99792.97;5192841;28;20052;-70
2023/03/31 02:08:08;;;;;;;3.00;1.35;;;12.20;99.90;;;12.36;100.00;99792.13;5188022;28;20397;-70
2023/03/31 02:10:44;;;;;;;3.13;0.80;;;12.20;99.90;;;12.41;100.00;99795.66;5192659;28;20041;-70
2023/03/31 02:13:21;;;;;;;4.18;1.10;;;12.30;99.90;;;12.45;100.00;99789.59;5188498;28;20049;-70
2023/03/31 02:15:58;;;;;;;3.88;0.82;;;12.30;99.90;;;12.43;100.00;99776.50;5189404;28;20045;-70
2023/03/31 02:18:37;;;;;;;1.13;0.60;;;12.30;99.90;;;12.43;100.00;99771.28;5187540;28;20053;-70
2023/03/31 02:21:10;;;;;;;3.03;0.65;;;12.30;99.90;;;12.44;100.00;99759.09;5193862;28;20060;-72
2023/03/31 02:23:44;;;;;;;3.63;0.82;;;12.30;99.90;;;12.44;100.00;99759.97;5189089;28;20037;-71
2023/03/31 02:26:24;;;;;;;2.38;0.70;;;12.40;99.90;;;12.44;100.00;99743.41;5184026;28;20133;-70
2023/03/31 02:29:05;;;;;;;2.28;0.60;;;12.30;99.90;;;12.44;100.00;99733.81;5184426;28;20087;-70
2023/03/31 02:31:46;;;;;;;2.80;0.80;;;12.30;99.90;;;12.45;100.00;99726.88;5190861;28;20048;-71
2023/03/31 02:34:18;;;;;;;5.20;1.20;;;12.30;99.90;;;12.44;100.00;99717.28;5201429;28;20049;-72
2023/03/31 02:36:51;;;;;;;3.58;1.20;;;12.30;99.90;;;12.42;100.00;99703.31;5203730;28;20383;-71
2023/03/31 02:39:29;;;;;;;2.83;1.15;;;12.30;99.90;;;12.42;100.00;99692.88;5208231;28;20453;-71
2023/03/31 02:42:05;;;;;;;1.98;0.75;;;12.30;99.90;;;12.42;100.00;99677.19;5176758;28;20073;-70
2023/03/31 02:44:43;;;;;;;1.67;0.50;;;12.30;99.90;;;12.41;100.00;99670.22;5182517;28;20092;-73
2023/03/31 02:47:18;;;;;;;2.17;0.70;;;12.30;99.90;;;12.41;100.00;99665.00;5199629;28;20148;-70
2023/03/31 02:49:55;;;;;;;2.10;0.80;;;12.30;99.90;;;12.41;100.00;99675.44;5198080;28;20037;-70
2023/03/31 02:52:42;;;;;;;1.42;0.68;;;12.30;99.90;;;12.41;100.00;99671.09;5194756;28;20068;-71
2023/03/31 02:55:36;;;;;;;1.67;0.68;;;12.30;99.90;;;12.40;100.00;99643.22;5195665;28;20034;-71
2023/03/31 02:58:34;;;;;;;2.83;1.00;;;12.30;99.90;;;12.37;100.00;99624.00;5219016;28;20506;-69
2023/03/31 03:01:17;;;;;;;4.35;1.00;;;12.20;99.90;;;12.32;100.00;99612.63;5202746;28;20325;-70
2023/03/31 03:04:08;;;;;;;6.95;1.15;;;12.20;99.90;;;12.25;100.00;99602.97;5195473;28;20048;-71
2023/03/31 03:06:53;;;;;;;4.18;1.00;;;12.20;99.90;;;12.21;100.00;99600.34;5191438;28;20439;-71
2023/03/31 03:09:45;;;;;;;5.05;0.95;;;12.20;99.90;;;12.19;100.00;99596.88;5203081;28;20065;-70
2023/03/31 03:12:26;;;;;;;3.40;0.90;;;12.10;99.90;;;12.17;100.00;99589.84;5179278;28;20395;-70
2023/03/31 03:15:03;;;;;;;3.38;1.00;;;12.10;99.90;;;12.13;100.00;99586.34;5202157;28;20070;-71
2023/03/31 03:17:41;;;;;;;3.20;1.02;;;12.10;99.90;;;12.09;100.00;99588.91;5194962;28;20077;-70
2023/03/31 03:20:15;;;;;;;5.30;1.02;;;12.10;99.90;;;12.08;100.00;99581.94;5194567;28;20048;-71
2023/03/31 03:22:47;;;;;;;8.38;2.65;;;12.00;99.90;;;12.06;100.00;99574.09;5185651;28;20099;-71
2023/03/31 03:25:23;;;;;;;5.28;2.65;;;12.00;99.90;;;12.07;100.00;99581.06;5190969;28;20045;-70
2023/03/31 03:27:55;;;;;;;3.25;1.88;;;12.00;99.90;;;12.09;100.00;99599.38;5200827;28;20430;-71
2023/03/31 03:30:30;;;;;;;3.75;1.55;;;12.00;99.90;;;12.09;100.00;99595.00;5184398;28;20147;-71
2023/03/31 03:33:05;;;;;;;4.22;1.60;;;12.00;99.90;;;12.05;100.00;99581.91;5189545;28;20042;-71
2023/03/31 03:35:37;;;;;;;7.97;1.40;;;12.00;99.90;;;12.01;100.00;99556.63;5186742;28;20126;-71
2023/03/31 03:38:10;;;;;;;3.92;1.20;;;12.00;99.90;;;11.96;100.00;99540.91;5197918;28;20141;-71
2023/03/31 03:40:42;;;;;;;7.15;2.20;;;11.90;99.90;;;11.95;100.00;99547.00;5182703;28;20064;-70
2023/03/31 03:43:14;;;;;;;4.38;1.85;;;11.90;99.90;;;11.97;100.00;99521.78;5198006;28;20049;-70
2023/03/31 03:45:48;;;;;;;5.40;2.33;;;11.90;99.90;;;11.94;100.00;99526.97;5165301;28;20405;-70
2023/03/31 03:48:22;;;;;;;3.53;1.55;;;11.90;99.90;;;11.96;100.00;99538.31;5185997;28;20126;-71
2023/03/31 03:50:56;;;;;;;3.08;1.48;;;11.90;99.90;;;11.97;100.00;99542.66;5206985;28;20406;-71
2023/03/31 03:53:28;;;;;;;4.18;1.50;;;11.90;99.90;;;11.97;100.00;99521.78;5193639;28;20714;-72
2023/03/31 03:56:01;;;;;;;3.80;1.55;;;11.90;99.90;;;11.99;100.00;99522.66;5181609;28;20340;-71
2023/03/31 03:58:34;;;;;;;4.00;1.67;;;11.90;99.90;;;12.01;100.00;99520.06;5189579;28;20042;-71
2023/03/31 04:01:06;;;;;;;4.95;1.35;;;11.90;99.90;;;12.04;100.00;99522.69;5199104;28;20046;-71
2023/03/31 04:03:40;;;;;;;4.50;1.20;;;11.90;99.90;;;12.07;100.00;99523.63;5186370;28;20372;-70
2023/03/31 04:06:12;;;;;;;3.08;1.20;;;12.00;99.90;;;12.09;100.00;99516.66;5178032;28;20414;-70
2023/03/31 04:08:44;;;;;;;3.28;0.80;;;12.00;99.90;;;12.08;100.00;99509.69;5185948;28;20046;-72
2023/03/31 04:11:19;;;;;;;3.15;1.00;;;12.00;99.90;;;12.09;100.00;99506.22;5192243;28;20395;-71
2023/03/31 04:13:54;;;;;;;3.33;1.27;;;12.00;99.90;;;12.08;100.00;99503.59;5185260;28;20498;-71
2023/03/31 04:16:26;;;;;;;2.28;0.77;;;12.00;99.90;;;12.11;100.00;99504.47;5200951;28;20054;-72
2023/03/31 04:19:02;;;;;;;4.10;1.15;;;12.00;99.90;;;12.14;100.00;99493.19;5185660;28;20367;-71
2023/03/31 04:21:43;;;;;;;2.97;1.00;;;12.00;99.90;;;12.13;100.00;99497.53;5194969;28;20042;-72
2023/03/31 04:24:20;;;;;;;2.97;0.80;;;12.00;99.90;;;12.13;100.00;99494.94;5178309;28;20042;-71
2023/03/31 04:26:53;;;;;;;3.00;1.00;;;12.00;99.90;;;12.11;100.00;99467.91;5192283;28;20495;-72
2023/03/31 04:29:26;;;;;;;1.20;0.70;;;12.00;99.90;;;12.09;100.00;99453.97;5175383;28;20056;-72
2023/03/31 04:31:59;;;;;;;2.97;0.70;;;12.00;99.90;;;12.09;100.00;99463.53;5178865;28;20045;-71
2023/03/31 04:34:36;;;;;;;2.95;1.20;;;12.00;99.90;;;12.08;100.00;99447.00;5195184;28;20037;-71
2023/03/31 04:37:09;;;;;;;4.03;1.15;;;12.00;99.90;;;12.01;100.00;99426.06;5185439;28;20046;-70
2023/03/31 04:39:45;;;;;;;4.50;1.40;;;12.00;99.90;;;11.98;100.00;99413.84;5176408;28;20451;-72
2023/03/31 04:42:17;;;;;;;3.35;1.27;;;12.00;99.90;;;11.97;100.00;99409.47;5185625;28;20050;-70
2023/03/31 04:44:50;;;;;;;3.10;1.60;;;11.90;99.90;;;11.96;100.00;99399.91;5177580;28;20517;-71
2023/03/31 04:47:26;;;;;;;3.63;0.98;;;11.90;99.90;;;11.94;100.00;99401.63;5193418;28;20077;-71
2023/03/31 04:49:59;;;;;;;4.55;1.00;;;11.90;99.90;;;11.94;100.00;99381.63;5188856;28;20041;-71
2023/03/31 04:52:32;;;;;;;4.05;1.00;;;11.90;99.90;;;11.91;100.00;99384.19;5175933;28;20053;-70
2023/03/31 04:55:05;;;;;;;2.47;0.75;;;11.90;99.90;;;11.90;100.00;99373.75;5170591;28;20043;-71
2023/03/31 04:57:37;;;;;;;5.30;0.90;;;11.90;99.90;;;11.88;100.00;99370.25;5176715;28;20037;-71
2023/03/31 05:00:10;;;;;;;1.33;0.70;;;11.80;99.90;;;11.86;100.00;99369.34;5191804;28;20061;-71
2023/03/31 05:02:42;;;;;;;1.92;0.82;;;11.80;99.90;;;11.85;100.00;99365.88;5176099;28;20069;-71
2023/03/31 05:05:16;;;;;;;2.88;1.70;;;11.80;99.90;;;11.83;100.00;99366.75;5191677;28;20598;-71
2023/03/31 05:07:48;;;;;;;3.72;1.08;;;11.80;99.90;;;11.88;100.00;99362.44;5170027;28;20049;-69
2023/03/31 05:10:20;;;;;;;3.13;1.60;;;11.80;99.90;;;11.85;100.00;99362.41;5182694;28;20140;-71
2023/03/31 05:12:52;;;;;;;1.65;0.98;;;11.80;99.90;;;11.83;100.00;99356.28;5164743;28;20443;-72
2023/03/31 05:15:24;;;;;;;1.40;0.90;;;11.80;99.90;;;11.82;100.00;99350.19;5181804;28;20046;-70
2023/03/31 05:17:58;;;;;;;4.68;0.85;;;11.80;99.90;;;11.85;100.00;99336.28;5185756;28;20050;-72
2023/03/31 05:20:31;;;;;;;2.22;0.70;;;11.80;99.90;;;11.86;100.00;99330.19;5189939;28;20057;-72
2023/03/31 05:23:04;;;;;;;1.90;0.70;;;11.80;99.90;;;11.88;100.00;99323.28;5185307;28;20049;-72
2023/03/31 05:25:36;;;;;;;1.77;0.98;;;11.80;99.90;;;11.89;100.00;99306.72;5178948;28;20045;-73
2023/03/31 05:28:08;;;;;;;1.58;0.98;;;11.80;99.90;;;11.87;100.00;99306.72;5213183;28;20053;-71
2023/03/31 05:30:40;;;;;;;2.25;0.75;;;11.80;99.90;;;11.90;100.00;99311.97;5188451;28;20552;-71
2023/03/31 05:33:13;;;;;;;3.90;1.98;;;11.90;99.90;;;11.91;100.00;99320.66;5212434;28;20049;-72
2023/03/31 05:35:46;;;;;;;2.65;0.80;;;11.90;99.90;;;11.92;100.00;99311.97;5176596;28;20100;-70
2023/03/31 05:38:20;;;;;;;3.35;1.10;;;11.90;99.90;;;11.92;100.00;99293.69;5200632;28;20141;-70
2023/03/31 05:40:52;;;;;;;1.50;0.70;;;11.90;99.90;;;11.93;100.00;99296.31;5183474;28;20108;-71
2023/03/31 05:43:25;;;;;;;1.63;0.80;;;11.90;99.90;;;11.91;100.00;99292.81;5200736;28;20577;-70
2023/03/31 05:45:57;;;;;;;1.83;0.75;;;11.90;99.90;;;11.95;100.00;99293.72;5184083;28;20048;-71
2023/03/31 05:48:29;;;;;;;2.55;0.70;;;11.90;99.90;;;11.95;100.00;99278.91;5167702;28;20042;-70
2023/03/31 05:51:03;;;;;;;1.40;0.80;;;11.90;99.90;;;11.96;100.00;99274.56;5174578;28;20088;-70
2023/03/31 05:53:35;;;;;;;1.27;0.65;;;11.90;99.90;;;11.96;100.00;99274.56;5174461;28;20077;-72
2023/03/31 05:56:08;;;;;;;1.73;0.90;;;11.90;99.90;;;11.97;100.00;99273.69;5166276;28;20052;-71
2023/03/31 05:58:40;;;;;;;2.33;0.70;;;11.90;99.90;;;12.00;100.00;99268.50;5191125;28;20042;-70
2023/03/31 06:01:18;;;;;;;1.98;0.73;;;11.90;99.90;;;12.01;100.00;99270.25;5177541;28;20057;-71
2023/03/31 06:03:51;;;;;;;1.58;0.70;;;12.00;99.90;;;12.05;100.00;99274.59;5359417;23;20050;-60
2023/03/31 06:06:25;;;;;;;2.30;0.80;;;12.00;99.90;;;12.06;100.00;99272.84;5169420;28;20494;-60
2023/03/31 06:08:57;;;;;;;2.63;0.63;;;12.00;99.90;;;12.05;100.00;99269.38;5175836;28;20042;-61
2023/03/31 06:11:29;;;;;;;1.65;0.60;;;12.00;99.90;;;12.17;100.00;99274.66;5171937;28;20050;-60
2023/03/31 06:14:01;;;;;;;1.13;0.50;;;12.00;99.90;;;12.13;100.00;99272.91;5171087;28;20049;-62
2023/03/31 06:16:34;;;;;;;0.73;0.43;;;12.00;99.90;;;12.11;100.00;99273.75;5178294;28;20050;-60
2023/03/31 06:19:06;;;;;;;0.43;0.38;;;12.00;99.90;;;12.12;100.00;99281.59;5179711;28;20053;-61
2023/03/31 06:21:39;;;;;;;0.30;0.30;;;12.00;99.90;;;12.12;100.00;99284.19;5175107;28;20712;-60
2023/03/31 06:24:11;;;;;;;2.00;0.55;;;12.00;99.90;;;12.21;100.00;99263.38;5183122;28;20049;-61
2023/03/31 06:26:44;;;;;;;1.60;0.60;;;12.10;99.90;;;12.18;100.00;99249.41;5181633;28;20034;-61
2023/03/31 06:29:16;;;;;;;0.47;0.40;;;12.10;99.90;;;12.13;100.00;99249.41;5182442;28;20084;-61
2023/03/31 06:31:48;;;;;;;2.35;0.68;;;12.10;99.90;;;12.13;100.00;99252.03;5174961;28;20118;-62
2023/03/31 06:34:20;;;;;;;3.60;0.40;;;12.10;99.90;;;12.12;100.00;99245.03;5182656;28;20045;-60
2023/03/31 06:36:53;;;;;;;2.55;0.47;;;12.10;99.90;;;12.14;100.00;99245.94;5182732;28;20399;-60
2023/03/31 06:39:25;;;;;;;1.15;0.50;;;12.10;99.90;;;12.17;100.00;99232.00;5173836;28;20049;-60
2023/03/31 06:41:58;;;;;;;1.77;0.50;;;12.00;99.90;;;12.16;100.00;99223.28;5176334;28;20479;-60
2023/03/31 06:44:33;;;;;;;1.02;0.52;;;12.10;99.90;;;12.14;100.00;99224.16;5174834;28;20054;-60
2023/03/31 06:47:05;;;;;;;0.82;0.32;;;12.10;99.90;;;12.14;100.00;99218.94;5174602;28;20068;-61
2023/03/31 06:49:37;;;;;;;0.30;0.30;;;12.10;99.90;;;12.15;100.00;99218.06;5180075;28;20097;-60
2023/03/31 06:52:10;;;;;;;1.98;1.00;;;12.10;99.90;;;12.16;100.00;99205.00;5170507;28;20046;-60
2023/03/31 06:54:42;;;;;;;0.88;0.32;;;12.10;99.90;;;12.18;100.00;99216.31;5173339;28;20046;-55
2023/03/31 06:57:15;;;;;;;0.35;0.35;;;12.10;99.90;;;12.17;100.00;99218.94;5182179;28;20038;-56
2023/03/31 06:59:47;;;;;;;0.45;0.40;;;12.10;99.90;;;12.21;100.00;99218.97;5182216;28;20124;-56
2023/03/31 07:02:19;;;;;;;1.10;0.30;;;12.10;99.90;;;12.22;100.00;99220.69;5182066;28;20050;-58
2023/03/31 07:04:51;;;;;;;0.40;0.38;;;12.10;99.90;;;12.32;100.00;99215.47;5174441;28;20052;-56
2023/03/31 07:07:25;;;;;;;1.63;0.45;;;12.20;99.90;;;12.41;100.00;99211.16;5163709;28;20042;-56
2023/03/31 07:09:57;;;;;;;0.30;0.30;;;12.30;99.90;;;12.40;100.00;99216.41;5164245;28;20041;-55
2023/03/31 07:12:32;;;;;;;0.32;0.30;;;12.30;99.90;;;12.44;100.00;99216.38;5176184;28;20046;-55
2023/03/31 07:15:06;;;;;;;0.35;0.35;;;12.30;99.90;;;12.49;100.00;99206.81;5172263;28;20050;-59
2023/03/31 07:17:40;;;;;;;0.35;0.30;;;12.40;99.90;;;12.55;100.00;99208.59;5175571;28;20137;-55
2023/03/31 07:20:15;;;;;;;1.35;0.40;;;12.40;99.90;;;12.62;100.00;99204.22;5162642;28;20042;-60
2023/03/31 07:22:49;;;;;;;0.98;0.40;;;12.50;99.90;;;12.66;100.00;99201.63;5179911;28;20528;-58
2023/03/31 07:25:21;;;;;;;0.30;0.30;;;12.50;99.90;;;12.72;100.00;99200.78;5176813;28;20046;-56
2023/03/31 07:27:53;;;;;;;0.60;0.60;;;12.60;99.90;;;12.78;100.00;99195.56;5169548;28;20415;-56
2023/03/31 07:30:25;;;;;;;1.15;0.45;;;12.60;99.90;;;12.83;100.00;99198.16;5160992;28;20054;-56
2023/03/31 07:32:58;;;;;;;0.43;0.43;;;12.60;99.90;;;12.80;100.00;99198.16;5162555;28;20125;-55
2023/03/31 07:35:30;;;;;;;0.80;0.73;;;12.60;99.90;;;12.75;100.00;99188.56;5162136;28;20414;-57
2023/03/31 07:38:04;;;;;;;1.92;0.50;;;12.60;99.90;;;12.77;100.00;99199.88;5164052;28;20050;-52
2023/03/31 07:40:36;;;;;;;0.82;0.50;;;12.60;99.90;;;12.84;100.00;99194.66;5166146;28;20078;-55
2023/03/31 07:43:08;;;;;;;1.23;0.52;;;12.70;99.90;;;12.95;100.00;99192.91;5166105;28;20047;-56
2023/03/31 07:45:40;;;;;;;1.52;0.50;;;12.80;99.90;;;13.01;100.00;99182.47;5165694;28;20178;-57
2023/03/31 07:48:12;;;;;;;4.20;1.33;;;12.80;99.90;;;13.14;100.00;99188.53;5165689;28;20050;-56
2023/03/31 07:50:45;;;;;;;1.05;0.65;;;12.90;99.90;;;13.38;100.00;99190.31;5165851;28;20042;-56
2023/03/31 07:53:26;;;;;;;2.42;0.50;;;13.10;99.90;;;13.53;100.00;99203.34;5164470;28;20113;-55
2023/03/31 07:55:58;;;;;;;2.30;0.45;;;13.20;99.90;;;13.58;100.00;99193.75;5165753;28;20045;-58
2023/03/31 07:58:30;;;;;;;4.53;0.70;;;13.30;99.90;;;13.74;100.00;99197.16;5181644;28;20056;-58
2023/03/31 08:01:03;;;;;;;1.75;0.50;;;13.40;99.90;;;13.92;100.00;99188.38;5172041;28;20451;-55
2023/03/31 08:03:35;;;;;;;1.00;0.57;;;13.50;99.90;;;14.19;100.00;99190.00;5165489;28;20506;-55
2023/03/31 08:06:07;;;;;;;2.33;0.70;;;13.70;99.90;;;14.61;100.00;99173.19;5171272;28;20406;-55
2023/03/31 08:08:42;;;;;;;1.77;0.95;;;14.00;99.90;;;14.67;100.00;99173.13;5173037;28;20058;-58
2023/03/31 08:11:14;;;;;;;0.68;0.43;;;14.10;99.90;;;14.56;100.00;99165.34;5165470;28;20047;-55
2023/03/31 08:13:46;;;;;;;0.95;0.40;;;14.10;99.90;;;14.45;100.00;99161.00;5165383;28;20042;-55
2023/03/31 08:16:19;;;;;;;0.93;0.43;;;14.10;99.90;;;14.53;100.00;99151.38;5165061;28;20065;-55
2023/03/31 08:18:51;;;;;;;1.48;0.70;;;14.10;99.90;;;14.69;100.00;99158.25;5165267;28;20053;-60
2023/03/31 08:21:23;;;;;;;1.92;0.40;;;14.20;99.90;;;14.84;100.00;99158.13;5165270;28;20078;-61
2023/03/31 08:23:56;;;;;;;2.25;0.73;;;14.40;99.90;;;15.68;99.22;99157.28;5165044;28;20769;-59
2023/03/31 08:26:30;;;;;;;2.72;0.50;;;14.80;99.90;;;16.34;94.86;99152.94;5173582;28;20399;-59
2023/03/31 08:29:03;;;;;;;2.60;0.65;;;15.30;99.90;;;16.79;92.89;99138.22;5166160;28;20568;-61
2023/03/31 08:31:35;;;;;;;0.90;0.40;;;15.80;99.90;;;16.91;91.43;99140.66;5164986;28;20053;-62
2023/03/31 08:34:07;;;;;;;3.28;0.57;;;16.00;99.90;;;16.76;89.30;99156.72;5165067;28;20121;-62
2023/03/31 08:36:40;;;;;;;3.17;0.60;;;16.00;99.90;;;16.47;90.00;99150.09;5164737;28;20077;-62
2023/03/31 08:39:14;;;;;;;2.10;0.98;;;15.90;99.90;;;16.14;91.15;99156.72;5164829;28;20042;-63
2023/03/31 08:41:55;;;;;;;3.22;0.50;;;15.70;99.90;;;15.82;92.52;99158.88;5164761;28;20038;-58
2023/03/31 08:44:35;;;;;;;2.65;0.60;;;15.50;99.90;;;15.54;94.38;99153.94;5164679;28;20050;-58
2023/03/31 08:47:15;;;;;;;3.50;0.57;;;15.30;99.90;;;15.45;94.91;99156.66;5164819;28;20042;-56
2023/03/31 08:49:52;;;;;;;1.60;0.65;;;15.20;99.90;;;15.43;94.03;99146.16;5163804;28;20128;-56
2023/03/31 08:52:31;;;;;;;2.22;0.65;;;15.10;99.90;;;15.47;92.66;99141.75;5172380;28;20046;-61
2023/03/31 08:55:10;;;;;;;2.15;0.60;;;15.10;99.90;;;15.47;93.19;99137.38;5162651;28;20050;-55
2023/03/31 08:57:53;;;;;;;3.60;0.40;;;15.00;99.90;;;15.63;93.37;99131.97;5166473;28;20042;-59
2023/03/31 09:00:25;;;;;;;2.83;0.85;;;15.10;99.90;;;15.68;92.46;99124.91;5175053;28;20131;-57
2023/03/31 09:03:03;;;;;;;1.70;0.60;;;15.20;99.90;;;15.67;92.64;99128.44;5168853;28;20128;-52
2023/03/31 09:05:46;;;;;;;2.05;0.60;;;15.20;99.90;;;15.61;93.00;99129.34;5176104;28;20054;-54
2023/03/31 09:08:33;;;;;;;3.50;0.70;;;15.20;99.90;;;15.54;93.57;99132.06;5184145;28;20037;-53
2023/03/31 09:11:13;;;;;;;4.63;0.82;;;15.20;99.90;;;15.57;93.98;99132.00;5164255;28;20504;-59
2023/03/31 09:14:31;;;;;;;3.55;0.73;;;15.20;99.90;;;15.64;93.80;99124.06;5164578;28;20522;-61
2023/03/31 09:17:16;;;;;;;1.60;0.90;;;15.20;99.90;;;15.73;92.78;99125.72;5163647;28;20909;-58
2023/03/31 09:19:54;;;;;;;2.83;0.98;;;15.30;99.90;;;15.81;92.62;99118.63;5163751;28;20042;-55
2023/03/31 09:22:32;;;;;;;3.45;0.80;;;15.30;99.90;;;15.96;92.99;99113.16;5163491;28;20050;-57
2023/03/31 09:25:10;;;;;;;4.43;0.85;;;15.40;99.90;;;16.22;92.63;99104.03;5165108;28;20083;-57
2023/03/31 09:27:46;;;;;;;2.65;0.90;;;15.60;99.90;;;16.58;91.99;99102.59;5166223;28;20050;-58
2023/03/31 09:30:25;;;;;;;2.13;0.77;;;15.90;99.90;;;16.91;89.64;99101.19;5168184;28;20046;-60
2023/03/31 09:33:12;;;;;;;2.53;0.85;;;16.20;99.90;;;17.06;87.75;99102.66;5162893;28;20044;-58
2023/03/31 09:35:44;;;;;;;2.38;0.80;;;16.40;99.90;;;17.10;87.25;99093.81;5169982;28;20054;-61
2023/03/31 09:38:16;;;;;;;3.20;1.30;;;16.50;99.90;;;17.05;86.86;99085.13;5183467;28;20048;-59
2023/03/31 09:40:49;;;;;;;2.95;0.63;;;16.50;99.90;;;16.88;86.85;99088.06;5180186;28;20072;-58
2023/03/31 09:43:27;;;;;;;1.13;0.70;;;16.40;99.90;;;16.80;87.72;99074.19;5180069;28;20058;-58
2023/03/31 09:45:59;;;;;;;1.73;0.73;;;16.40;99.90;;;16.75;87.64;99070.75;5180405;28;20045;-59
2023/03/31 09:48:35;;;;;;;4.38;0.80;;;16.30;99.90;;;16.67;87.75;99067.38;5167795;28;20078;-58
2023/03/31 09:51:18;;;;;;;3.15;0.80;;;16.20;99.90;;;16.65;88.57;99063.91;5164294;28;20065;-58
2023/03/31 09:53:57;;;;;;;4.75;1.10;;;16.20;99.90;;;16.68;88.07;99048.06;5173813;28;20133;-57
2023/03/31 09:56:49;;;;;;;5.60;0.90;;;16.20;99.90;;;16.64;88.11;99055.16;5183381;28;20128;-58
2023/03/31 09:59:31;;;;;;;5.25;1.08;;;16.20;99.90;;;16.76;87.10;99056.72;5183802;28;20050;-61
2023/03/31 10:02:21;;;;;;;3.97;0.80;;;16.30;99.90;;;16.86;86.96;99062.69;5183803;28;20064;-59
2023/03/31 10:04:53;;;;;;;2.65;1.00;;;16.30;99.90;;;17.05;86.27;99056.19;5183554;28;20080;-58
2023/03/31 10:07:26;;;;;;;3.17;0.85;;;16.50;99.90;;;17.14;85.42;99053.38;5183158;28;20054;-59
2023/03/31 10:09:58;;;;;;;5.40;0.93;;;16.60;99.80;;;17.20;84.68;99044.47;5183570;28;20041;-55
2023/03/31 10:12:31;;;;;;;4.32;1.00;;;16.70;99.50;;;17.21;84.92;99049.72;5183376;28;20132;-55
2023/03/31 10:15:19;;;;;;;3.42;0.68;;;16.70;99.40;;;17.15;84.00;99044.59;5183440;28;20045;-57
2023/03/31 10:17:51;;;;;;;1.90;0.80;;;16.70;99.00;;;17.02;84.01;99045.72;5179587;28;20129;-59
2023/03/31 10:20:33;;;;;;;4.53;1.10;;;16.60;98.80;;;16.83;83.69;99049.59;5162939;28;20078;-61
2023/03/31 10:23:16;;;;;;;2.58;0.85;;;16.50;98.50;;;16.63;84.69;99056.06;5167885;28;20065;-60
2023/03/31 10:25:48;;;;;;;3.05;1.00;;;16.30;98.80;;;16.56;85.17;99054.38;5171064;28;20089;-61
2023/03/31 10:28:22;;;;;;;4.20;1.00;;;16.20;99.00;;;16.48;85.64;99051.03;5169255;28;20042;-56
2023/03/31 10:31:00;;;;;;;4.60;0.65;;;16.20;99.20;;;16.44;85.57;99050.22;5176593;28;20462;-62
2023/03/31 10:33:34;;;;;;;2.50;0.70;;;16.10;99.30;;;16.38;86.06;99055.59;5172753;28;20050;-55
2023/03/31 10:36:15;;;;;;;4.95;1.02;;;16.00;99.40;;;16.37;84.95;99047.72;5176172;28;20100;-56
2023/03/31 10:38:48;;;;;;;3.35;0.90;;;16.00;99.10;;;16.30;84.69;99041.72;5163746;28;20057;-58
2023/03/31 10:41:24;;;;;;;3.47;1.10;;;15.90;98.90;;;16.23;85.35;99042.66;5162844;28;20050;-57
2023/03/31 10:43:58;;;;;;;2.70;0.70;;;15.90;99.10;;;16.18;86.08;99049.78;5162588;28;20042;-57
2023/03/31 10:46:43;;;;;;;;;;;15.80;99.40;;;16.15;86.34;99049.81;5171313;28;20052;-56
2023/03/31 10:49:23;;;;;;;3.85;0.90;;;15.80;99.60;;;16.09;86.64;99047.28;5176277;28;19925;-59
2023/03/31 10:51:57;;;;;;;2.25;0.50;;;15.70;99.70;;;16.02;85.81;99062.25;5162581;28;20061;-61
2023/03/31 10:54:29;;;;;;;1.88;0.55;;;15.70;99.50;;;15.90;86.14;99065.06;5163078;28;20124;-60